createdAt,value
2018-03-06T00:01:40.454Z,76.52
2018-03-06T00:03:41.805Z,76.14
2018-03-06T00:05:43.217Z,75.85
2018-03-06T00:07:44.725Z,76.42
2018-03-06T00:09:46.139Z,76.32
2018-03-06T00:11:51.320Z,76.04
2018-03-06T00:13:52.727Z,76.71
2018-03-06T00:15:54.124Z,76.71
2018-03-06T00:17:55.535Z,76.99
2018-03-06T00:19:56.941Z,76.90
2018-03-06T00:21:58.347Z,77.28
2018-03-06T00:23:59.756Z,76.80
2018-03-06T00:26:01.198Z,77.18
2018-03-06T00:28:02.599Z,77.28
2018-03-06T00:30:04.018Z,77.56
2018-03-06T00:32:05.422Z,77.18
2018-03-06T00:34:06.830Z,76.99
2018-03-06T00:36:08.233Z,76.90
2018-03-06T00:38:09.638Z,76.90
2018-03-06T00:40:11.136Z,77.56
2018-03-06T00:42:12.532Z,77.47
2018-03-06T00:44:16.589Z,77.75
2018-03-06T00:46:17.996Z,77.47
2018-03-06T00:48:19.403Z,77.56
2018-03-06T00:50:20.809Z,77.84
2018-03-06T00:52:22.216Z,77.66
2018-03-06T00:54:23.621Z,78.51
2018-03-06T00:56:25.066Z,77.66
2018-03-06T00:58:26.434Z,77.75
2018-03-06T01:00:27.839Z,77.94
2018-03-06T01:02:29.246Z,77.94
2018-03-06T01:04:30.656Z,77.66
2018-03-06T01:06:32.054Z,77.84
2018-03-06T01:08:33.463Z,78.13
2018-03-06T01:10:34.926Z,77.56
2018-03-06T01:12:36.332Z,77.94
2018-03-06T01:14:37.789Z,78.00
2018-03-06T01:16:39.205Z,78.09
2018-03-06T01:18:40.618Z,78.75
2018-03-06T01:20:42.111Z,78.75
2018-03-06T01:22:43.505Z,79.23
2018-03-06T01:24:45.049Z,79.52
2018-03-06T01:26:46.458Z,79.23
2018-03-06T01:28:47.906Z,79.42
2018-03-06T01:30:49.365Z,79.42
2018-03-06T01:32:50.781Z,78.75
2018-03-06T01:34:52.185Z,79.52
2018-03-06T01:36:53.590Z,79.42
2018-03-06T01:38:54.994Z,79.33
2018-03-06T01:40:56.402Z,78.95
2018-03-06T01:42:57.762Z,78.47
2018-03-06T01:44:59.168Z,78.38
2018-03-06T01:47:00.569Z,77.62
2018-03-06T01:49:01.977Z,78.28
2018-03-06T01:51:03.388Z,78.00
2018-03-06T01:53:04.784Z,79.61
2018-03-06T01:55:06.195Z,78.38
2018-03-06T01:57:07.614Z,78.75
2018-03-06T01:59:09.022Z,79.04
2018-03-06T02:01:10.425Z,78.75
2018-03-06T02:03:11.831Z,79.80
2018-03-06T02:05:13.258Z,79.23
2018-03-06T02:07:14.660Z,80.46
2018-03-06T02:09:16.081Z,80.65
2018-03-06T02:11:17.513Z,80.46
2018-03-06T02:13:18.907Z,80.08
2018-03-06T02:15:20.321Z,79.71
2018-03-06T02:17:21.729Z,80.56
2018-03-06T02:19:23.142Z,80.37
2018-03-06T02:21:24.709Z,79.95
2018-03-06T02:23:26.183Z,79.99
2018-03-06T02:25:27.649Z,79.95
2018-03-06T02:27:29.111Z,80.65
2018-03-06T02:29:30.517Z,79.61
2018-03-06T02:31:32.028Z,79.14
2018-03-06T02:33:33.446Z,78.95
2018-03-06T02:35:35.023Z,79.33
2018-03-06T02:37:36.565Z,79.99
2018-03-06T02:39:38.054Z,79.95
2018-03-06T02:41:39.495Z,79.66
2018-03-06T02:43:40.966Z,79.85
2018-03-06T02:45:42.447Z,79.95
2018-03-06T02:47:44.016Z,79.95
2018-03-06T02:49:45.618Z,80.04
2018-03-06T02:51:47.117Z,80.04
2018-03-06T02:53:48.810Z,80.52
2018-03-06T02:55:50.460Z,80.62
2018-03-06T02:57:52.151Z,80.99
2018-03-06T02:59:53.596Z,80.62
2018-03-06T03:01:55.003Z,80.52
2018-03-06T03:03:56.404Z,80.52
2018-03-06T03:05:57.809Z,80.71
2018-03-06T03:07:59.213Z,80.24
2018-03-06T03:10:00.620Z,80.52
2018-03-06T03:12:02.039Z,81.09
2018-03-06T03:14:03.458Z,81.37
2018-03-06T03:16:04.888Z,80.80
2018-03-06T03:18:06.297Z,81.27
2018-03-06T03:20:07.702Z,81.27
2018-03-06T03:22:09.104Z,81.47
2018-03-06T03:24:10.510Z,80.90
2018-03-06T03:26:11.914Z,81.09
2018-03-06T03:28:13.359Z,81.27
2018-03-06T03:30:14.744Z,82.13
2018-03-06T03:32:16.145Z,81.56
2018-03-06T03:34:17.553Z,81.27
2018-03-06T03:36:18.964Z,81.27
2018-03-06T03:38:20.359Z,81.66
2018-03-06T03:40:21.995Z,81.85
2018-03-06T03:42:23.366Z,82.32
2018-03-06T03:44:24.773Z,82.32
2018-03-06T03:46:26.174Z,82.70
2018-03-06T03:48:27.582Z,82.42
2018-03-06T03:50:28.984Z,82.60
2018-03-06T03:52:30.391Z,82.70
2018-03-06T03:54:31.799Z,82.70
2018-03-06T03:56:33.203Z,81.85
2018-03-06T03:58:34.607Z,81.75
2018-03-06T04:00:36.012Z,82.60
2018-03-06T04:02:37.477Z,82.70
2018-03-06T04:04:38.918Z,82.98
2018-03-06T04:06:40.348Z,82.60
2018-03-06T04:08:41.724Z,82.51
2018-03-06T04:10:43.128Z,82.51
2018-03-06T04:12:44.532Z,82.51
2018-03-06T04:14:45.935Z,82.60
2018-03-06T04:16:47.337Z,82.42
2018-03-06T04:18:48.740Z,82.42
2018-03-06T04:20:50.143Z,82.51
2018-03-06T04:22:51.547Z,82.89
2018-03-06T04:24:52.970Z,82.89
2018-03-06T04:26:54.373Z,82.98
2018-03-06T04:28:55.776Z,82.89
2018-03-06T04:30:57.179Z,83.74
2018-03-06T04:32:58.584Z,83.55
2018-03-06T04:35:00.002Z,83.65
2018-03-06T04:37:01.423Z,83.27
2018-03-06T04:39:02.824Z,83.46
2018-03-06T04:41:04.223Z,83.94
2018-03-06T04:43:05.646Z,84.22
2018-03-06T04:45:07.057Z,83.65
2018-03-06T04:47:08.464Z,83.55
2018-03-06T04:49:09.880Z,83.55
2018-03-06T04:51:11.285Z,84.03
2018-03-06T04:53:12.697Z,83.27
2018-03-06T04:55:14.105Z,82.79
2018-03-06T04:57:15.527Z,82.89
2018-03-06T04:59:16.926Z,82.51
2018-03-06T05:01:18.371Z,82.79
2018-03-06T05:03:19.734Z,83.74
2018-03-06T05:05:21.138Z,83.84
2018-03-06T05:07:22.544Z,84.03
2018-03-06T05:09:23.972Z,84.59
2018-03-06T05:11:25.390Z,83.94
2018-03-06T05:13:26.801Z,84.03
2018-03-06T05:15:28.199Z,84.12
2018-03-06T05:17:29.608Z,83.17
2018-03-06T05:19:31.030Z,83.36
2018-03-06T05:21:32.365Z,84.22
2018-03-06T05:23:33.772Z,84.41
2018-03-06T05:25:35.178Z,84.12
2018-03-06T05:27:36.593Z,84.03
2018-03-06T05:29:38.000Z,84.03
2018-03-06T05:31:39.431Z,83.84
2018-03-06T05:33:40.834Z,84.50
2018-03-06T05:35:42.237Z,83.84
2018-03-06T05:37:43.646Z,83.94
2018-03-06T05:39:45.040Z,84.03
2018-03-06T05:41:46.444Z,83.94
2018-03-06T05:43:47.882Z,83.46
2018-03-06T05:45:49.331Z,84.03
2018-03-06T05:47:50.738Z,83.74
2018-03-06T05:49:52.148Z,83.94
2018-03-06T05:51:53.551Z,84.69
2018-03-06T05:53:54.975Z,84.59
2018-03-06T05:55:56.379Z,84.41
2018-03-06T05:57:57.785Z,84.59
2018-03-06T06:00:40.227Z,84.50
2018-03-06T06:02:41.634Z,85.07
2018-03-06T06:04:43.039Z,84.78
2018-03-06T06:06:44.446Z,84.59
2018-03-06T06:08:45.852Z,83.94
2018-03-06T06:10:47.258Z,84.59
2018-03-06T06:12:48.663Z,84.03
2018-03-06T06:14:50.063Z,84.03
2018-03-06T06:16:51.478Z,84.41
2018-03-06T06:18:52.882Z,84.41
2018-03-06T06:20:54.285Z,84.41
2018-03-06T06:22:55.703Z,84.78
2018-03-06T06:24:57.109Z,83.94
2018-03-06T06:26:58.521Z,84.50
2018-03-06T06:28:59.928Z,84.22
2018-03-06T06:31:01.335Z,84.59
2018-03-06T06:33:02.745Z,84.12
2018-03-06T06:35:04.154Z,84.31
2018-03-06T06:37:05.563Z,84.59
2018-03-06T06:39:06.974Z,84.59
2018-03-06T06:41:08.381Z,84.69
2018-03-06T06:43:09.791Z,84.69
2018-03-06T06:45:11.203Z,84.50
2018-03-06T06:47:12.611Z,84.59
2018-03-06T06:49:14.019Z,84.50
2018-03-06T06:51:15.431Z,83.27
2018-03-06T06:53:16.873Z,82.79
2018-03-06T06:55:18.281Z,84.03
2018-03-06T06:57:19.690Z,84.03
2018-03-06T06:59:21.096Z,84.12
2018-03-06T07:01:22.509Z,84.41
2018-03-06T07:03:23.914Z,84.22
2018-03-06T07:05:25.319Z,84.50
2018-03-06T07:07:26.729Z,84.50
2018-03-06T07:09:28.150Z,85.26
2018-03-06T07:11:29.732Z,84.78
2018-03-06T07:13:31.142Z,84.50
2018-03-06T07:15:32.551Z,84.45
2018-03-06T07:17:33.962Z,84.26
2018-03-06T07:19:35.442Z,84.50
2018-03-06T07:21:36.847Z,84.64
2018-03-06T07:23:38.257Z,84.36
2018-03-06T07:25:39.681Z,84.07
2018-03-06T07:27:41.080Z,84.36
2018-03-06T07:29:42.524Z,84.45
2018-03-06T07:31:43.897Z,84.45
2018-03-06T07:33:45.302Z,84.17
2018-03-06T07:35:46.715Z,83.97
2018-03-06T07:37:48.124Z,83.78
2018-03-06T07:39:49.531Z,84.17
2018-03-06T07:41:50.986Z,83.36
2018-03-06T07:43:52.350Z,82.40
2018-03-06T07:45:53.761Z,80.74
2018-03-06T07:47:55.172Z,79.44
2018-03-06T07:49:56.587Z,75.49
2018-03-06T07:51:58.001Z,73.34
2018-03-06T07:53:59.415Z,71.72
2018-03-06T07:56:00.827Z,71.06
2018-03-06T07:58:02.241Z,69.38
2018-03-06T08:00:03.660Z,68.05
2018-03-06T08:02:05.075Z,67.03
2018-03-06T08:04:06.501Z,66.78
2018-03-06T08:06:07.909Z,64.91
2018-03-06T08:08:09.328Z,63.57
2018-03-06T08:10:10.742Z,63.04
2018-03-06T08:12:12.170Z,62.27
2018-03-06T08:14:13.580Z,60.49
2018-03-06T08:16:14.950Z,59.06
2018-03-06T08:18:16.375Z,58.54
2018-03-06T08:20:17.800Z,54.88
2018-03-06T08:22:19.224Z,52.29
2018-03-06T08:24:20.645Z,51.17
2018-03-06T08:26:22.075Z,51.79
2018-03-06T08:28:23.496Z,56.10
2018-03-06T08:30:24.917Z,58.65
2018-03-06T08:32:26.343Z,59.60
2018-03-06T08:34:27.765Z,60.65
2018-03-06T08:36:29.188Z,60.75
2018-03-06T08:38:30.611Z,62.52
2018-03-06T08:40:32.036Z,63.29
2018-03-06T08:42:33.456Z,64.40
2018-03-06T08:44:34.875Z,64.78
2018-03-06T08:46:36.298Z,65.92
2018-03-06T08:48:37.714Z,67.35
2018-03-06T08:50:39.135Z,66.31
2018-03-06T08:52:40.554Z,66.69
2018-03-06T08:54:41.976Z,66.59
2018-03-06T08:56:43.391Z,66.78
2018-03-06T08:58:44.811Z,67.55
2018-03-06T09:00:46.230Z,67.83
2018-03-06T09:02:47.650Z,67.16
2018-03-06T09:04:49.066Z,66.59
2018-03-06T09:06:50.488Z,66.40
2018-03-06T09:08:51.900Z,67.13
2018-03-06T09:10:53.315Z,67.80
2018-03-06T09:12:54.730Z,67.80
2018-03-06T09:14:56.144Z,68.18
2018-03-06T09:16:57.565Z,68.46
2018-03-06T09:18:58.978Z,69.42
2018-03-06T09:21:00.393Z,69.85
2018-03-06T09:23:01.820Z,70.24
2018-03-06T09:25:03.238Z,70.14
2018-03-06T09:27:04.655Z,70.62
2018-03-06T09:29:06.069Z,71.00
2018-03-06T09:31:07.484Z,70.47
2018-03-06T09:33:08.901Z,70.08
2018-03-06T09:35:10.317Z,69.79
2018-03-06T09:37:11.734Z,69.32
2018-03-06T09:39:13.151Z,68.59
2018-03-06T09:41:14.566Z,68.40
2018-03-06T09:43:15.989Z,68.30
2018-03-06T09:45:17.409Z,67.86
2018-03-06T09:47:18.820Z,66.72
2018-03-06T09:49:20.560Z,66.53
2018-03-06T09:51:21.986Z,66.15
2018-03-06T09:53:23.397Z,66.21
2018-03-06T09:55:24.816Z,66.63
2018-03-06T09:57:26.238Z,66.34
2018-03-06T09:59:27.655Z,65.86
2018-03-06T10:01:29.077Z,65.48
2018-03-06T10:03:30.493Z,65.39
2018-03-06T10:05:31.913Z,65.10
2018-03-06T10:07:33.347Z,64.72
2018-03-06T10:09:34.757Z,64.15
2018-03-06T10:11:37.007Z,64.53
2018-03-06T10:13:38.427Z,64.34
2018-03-06T10:15:39.849Z,65.20
2018-03-06T10:17:41.267Z,64.85
2018-03-06T10:19:42.686Z,63.70
2018-03-06T10:21:44.105Z,64.09
2018-03-06T10:23:45.524Z,64.09
2018-03-06T10:25:47.040Z,63.29
2018-03-06T10:27:48.456Z,64.24
2018-03-06T10:29:49.873Z,64.53
2018-03-06T10:31:51.311Z,64.81
2018-03-06T10:33:52.717Z,64.62
2018-03-06T10:35:54.134Z,65.00
2018-03-06T10:38:36.689Z,65.48
2018-03-06T10:40:38.211Z,65.67
2018-03-06T10:42:39.619Z,65.67
2018-03-06T10:44:41.042Z,65.58
2018-03-06T10:46:42.987Z,64.62
2018-03-06T10:48:44.402Z,64.28
2018-03-06T10:50:46.275Z,64.18
2018-03-06T10:52:48.194Z,64.28
2018-03-06T10:54:49.638Z,63.60
2018-03-06T10:56:51.075Z,63.80
2018-03-06T10:58:52.537Z,64.09
2018-03-06T11:00:54.522Z,63.80
2018-03-06T11:02:55.917Z,63.60
2018-03-06T11:04:57.328Z,63.42
2018-03-06T11:06:58.761Z,63.04
2018-03-06T11:09:00.217Z,63.13
2018-03-06T11:11:01.858Z,62.75
2018-03-06T11:13:03.533Z,62.65
2018-03-06T11:15:05.001Z,62.94
2018-03-06T11:17:06.543Z,63.07
2018-03-06T11:19:08.025Z,62.40
2018-03-06T11:21:09.440Z,61.83
2018-03-06T11:23:11.267Z,61.83
2018-03-06T11:25:13.299Z,61.54
2018-03-06T11:27:14.711Z,61.07
2018-03-06T11:29:16.159Z,61.19
2018-03-06T11:31:17.933Z,60.87
2018-03-06T11:33:19.576Z,61.54
2018-03-06T11:35:20.992Z,62.40
2018-03-06T11:37:22.773Z,62.11
2018-03-06T11:39:24.191Z,62.59
2018-03-06T11:41:26.557Z,61.83
2018-03-06T11:43:27.987Z,62.11
2018-03-06T11:45:29.411Z,61.92
2018-03-06T11:47:31.429Z,61.76
2018-03-06T11:49:33.393Z,61.00
2018-03-06T11:51:35.020Z,60.33
2018-03-06T11:53:36.759Z,60.42
2018-03-06T11:55:38.227Z,60.52
2018-03-06T11:57:40.398Z,60.81
2018-03-06T11:59:42.137Z,60.61
2018-03-06T12:01:44.176Z,60.42
2018-03-06T12:03:45.839Z,59.69
2018-03-06T12:05:47.533Z,60.27
2018-03-06T12:07:49.074Z,59.50
2018-03-06T12:09:50.574Z,59.31
2018-03-06T12:11:52.595Z,59.41
2018-03-06T12:13:54.404Z,60.04
2018-03-06T12:15:57.145Z,60.04
2018-03-06T12:17:58.844Z,59.31
2018-03-06T12:20:00.486Z,59.76
2018-03-06T12:22:02.728Z,60.24
2018-03-06T12:24:04.418Z,59.95
2018-03-06T12:26:06.132Z,60.42
2018-03-06T12:28:08.034Z,61.10
2018-03-06T12:30:09.599Z,61.13
2018-03-06T12:32:11.248Z,59.88
2018-03-06T12:34:12.778Z,59.31
2018-03-06T12:36:14.295Z,59.22
2018-03-06T12:38:15.745Z,59.22
2018-03-06T12:40:17.946Z,59.59
2018-03-06T12:42:19.716Z,59.24
2018-03-06T12:44:21.405Z,58.83
2018-03-06T12:46:23.107Z,59.15
2018-03-06T12:48:24.829Z,58.86
2018-03-06T12:50:26.452Z,58.67
2018-03-06T12:52:27.920Z,58.86
2018-03-06T12:54:29.344Z,58.29
2018-03-06T12:56:31.602Z,58.10
2018-03-06T12:58:33.162Z,57.81
2018-03-06T13:00:35.048Z,58.58
2018-03-06T13:02:36.936Z,58.29
2018-03-06T13:04:38.861Z,58.38
2018-03-06T13:06:40.519Z,58.19
2018-03-06T13:08:42.282Z,58.29
2018-03-06T13:10:43.953Z,58.10
2018-03-06T13:12:46.310Z,58.29
2018-03-06T13:14:48.276Z,58.38
2018-03-06T13:16:51.472Z,58.86
2018-03-06T13:18:53.057Z,59.44
2018-03-06T13:20:54.822Z,59.53
2018-03-06T13:22:56.682Z,59.34
2018-03-06T13:24:58.463Z,59.53
2018-03-06T13:27:00.196Z,59.24
2018-03-06T13:29:01.922Z,59.72
2018-03-06T13:31:04.173Z,59.34
2018-03-06T13:33:06.183Z,58.86
2018-03-06T13:35:07.992Z,58.95
2018-03-06T13:37:09.865Z,58.58
2018-03-06T13:39:11.984Z,58.29
2018-03-06T13:41:13.900Z,58.58
2018-03-06T13:43:15.683Z,58.76
2018-03-06T13:45:17.607Z,58.51
2018-03-06T13:47:19.257Z,58.58
2018-03-06T13:49:21.366Z,59.05
2018-03-06T13:51:23.207Z,59.15
2018-03-06T13:53:25.329Z,58.86
2018-03-06T13:55:27.199Z,59.24
2018-03-06T13:57:29.357Z,59.44
2018-03-06T13:59:31.092Z,59.24
2018-03-06T14:01:32.871Z,59.24
2018-03-06T14:03:34.665Z,59.47
2018-03-06T14:05:36.226Z,59.24
2018-03-06T14:07:38.310Z,58.80
2018-03-06T14:09:39.805Z,58.98
2018-03-06T14:11:41.448Z,58.98
2018-03-06T14:13:43.198Z,59.08
2018-03-06T14:15:45.133Z,59.18
2018-03-06T14:17:47.183Z,59.18
2018-03-06T14:19:48.880Z,59.75
2018-03-06T14:21:51.336Z,59.18
2018-03-06T14:23:53.030Z,59.44
2018-03-06T14:25:55.264Z,59.44
2018-03-06T14:27:56.995Z,59.75
2018-03-06T14:29:58.732Z,59.66
2018-03-06T14:32:00.386Z,59.56
2018-03-06T14:34:02.032Z,60.01
2018-03-06T14:36:03.896Z,60.30
2018-03-06T14:38:05.487Z,60.39
2018-03-06T14:40:06.980Z,60.30
2018-03-06T14:42:08.402Z,60.33
2018-03-06T14:44:09.830Z,60.71
2018-03-06T14:46:11.251Z,60.13
2018-03-06T14:48:12.676Z,59.01
2018-03-06T14:50:14.106Z,58.83
2018-03-06T14:52:15.726Z,58.06
2018-03-06T14:54:17.245Z,57.58
2018-03-06T14:56:19.070Z,58.25
2018-03-06T14:58:20.976Z,58.06
2018-03-06T15:00:22.754Z,57.77
2018-03-06T15:02:24.167Z,57.87
2018-03-06T15:04:25.648Z,57.77
2018-03-06T15:06:27.229Z,58.06
2018-03-06T15:08:28.950Z,58.06
2018-03-06T15:10:30.690Z,58.15
2018-03-06T15:12:32.115Z,58.44
2018-03-06T15:14:34.405Z,58.83
2018-03-06T15:16:35.932Z,58.73
2018-03-06T15:18:37.437Z,58.83
2018-03-06T15:20:38.994Z,58.83
2018-03-06T15:22:42.120Z,58.15
2018-03-06T15:24:43.824Z,58.63
2018-03-06T15:26:46.049Z,58.61
2018-03-06T15:28:47.597Z,59.11
2018-03-06T15:30:49.424Z,58.70
2018-03-06T15:32:51.484Z,59.18
2018-03-06T15:34:53.304Z,59.37
2018-03-06T15:36:54.970Z,59.94
2018-03-06T15:38:56.845Z,59.84
2018-03-06T15:40:58.326Z,60.61
2018-03-06T15:42:59.847Z,60.61
2018-03-06T15:45:01.865Z,60.61
2018-03-06T15:47:03.564Z,60.61
2018-03-06T15:49:05.164Z,61.09
2018-03-06T15:51:06.668Z,60.42
2018-03-06T15:53:08.081Z,60.52
2018-03-06T15:55:09.506Z,59.47
2018-03-06T15:57:10.933Z,59.37
2018-03-06T15:59:12.358Z,59.56
2018-03-06T16:01:13.812Z,59.84
2018-03-06T16:03:15.214Z,60.42
2018-03-06T16:05:16.642Z,60.42
2018-03-06T16:07:18.066Z,60.61
2018-03-06T16:09:19.493Z,60.58
2018-03-06T16:11:20.940Z,60.61
2018-03-06T16:13:22.361Z,61.19
2018-03-06T16:15:23.794Z,61.09
2018-03-06T16:17:25.220Z,60.80
2018-03-06T16:19:26.647Z,60.71
2018-03-06T16:21:28.616Z,60.99
2018-03-06T16:23:30.420Z,60.71
2018-03-06T16:25:32.434Z,60.90
2018-03-06T16:27:33.906Z,61.47
2018-03-06T16:29:35.488Z,61.38
2018-03-06T16:31:37.515Z,61.38
2018-03-06T16:33:39.220Z,61.57
2018-03-06T16:35:40.633Z,62.40
2018-03-06T16:37:42.132Z,62.97
2018-03-06T16:39:43.728Z,62.68
2018-03-06T16:41:45.383Z,62.97
2018-03-06T16:43:46.933Z,63.26
2018-03-06T16:45:48.402Z,63.35
2018-03-06T16:47:49.855Z,63.45
2018-03-06T16:49:51.280Z,63.83
2018-03-06T16:51:52.708Z,63.80
2018-03-06T16:53:54.337Z,63.99
2018-03-06T16:55:57.025Z,64.47
2018-03-06T16:58:00.430Z,64.28
2018-03-06T17:00:03.480Z,64.09
2018-03-06T17:02:06.758Z,64.75
2018-03-06T17:04:08.445Z,64.85
2018-03-06T17:06:10.863Z,65.04
2018-03-06T17:08:13.447Z,65.80
2018-03-06T17:10:15.173Z,66.09
2018-03-06T17:12:17.344Z,66.25
2018-03-06T17:14:18.973Z,65.87
2018-03-06T17:16:20.938Z,66.44
2018-03-06T17:18:22.408Z,66.15
2018-03-06T17:20:24.098Z,66.25
2018-03-06T17:22:25.509Z,66.82
2018-03-06T17:24:27.025Z,67.58
2018-03-06T17:26:28.480Z,67.21
2018-03-06T17:28:30.025Z,67.30
2018-03-06T17:30:31.485Z,67.49
2018-03-06T17:32:33.013Z,67.21
2018-03-06T17:34:34.533Z,67.11
2018-03-06T17:36:36.194Z,67.40
2018-03-06T17:38:37.775Z,67.87
2018-03-06T17:40:39.464Z,68.16
2018-03-06T17:42:40.990Z,68.32
2018-03-06T17:44:42.482Z,68.51
2018-03-06T17:46:43.964Z,69.08
2018-03-06T17:48:45.468Z,69.08
2018-03-06T17:50:46.977Z,69.17
2018-03-06T17:52:48.397Z,68.98
2018-03-06T17:54:49.864Z,69.37
2018-03-06T17:56:51.393Z,69.65
2018-03-06T17:58:53.515Z,69.56
2018-03-06T18:00:55.230Z,69.27
2018-03-06T18:02:57.242Z,69.93
2018-03-06T18:04:58.952Z,69.65
2018-03-06T18:07:00.442Z,69.65
2018-03-06T18:09:02.051Z,69.65
2018-03-06T18:11:03.499Z,69.56
2018-03-06T18:13:05.348Z,69.46
2018-03-06T18:15:06.908Z,70.22
2018-03-06T18:17:08.429Z,70.13
2018-03-06T18:19:11.816Z,70.03
2018-03-06T18:21:14.358Z,69.93
2018-03-06T18:23:16.159Z,70.09
2018-03-06T18:25:17.743Z,70.00
2018-03-06T18:27:19.230Z,70.67
2018-03-06T18:29:20.762Z,71.14
2018-03-06T18:31:23.830Z,71.04
2018-03-06T18:33:26.035Z,71.14
2018-03-06T18:35:28.542Z,71.33
2018-03-06T18:37:30.226Z,71.14
2018-03-06T18:39:31.834Z,71.81
2018-03-06T18:41:33.557Z,71.81
2018-03-06T18:43:35.180Z,72.28
2018-03-06T18:45:36.686Z,72.76
2018-03-06T18:47:38.155Z,72.72
2018-03-06T18:49:39.653Z,72.82
2018-03-06T18:51:41.738Z,73.11
2018-03-06T18:53:43.450Z,73.30
2018-03-06T18:55:45.088Z,73.30
2018-03-06T18:57:46.696Z,73.11
2018-03-06T18:59:48.252Z,73.77
2018-03-06T19:01:51.024Z,73.87
2018-03-06T19:03:52.555Z,73.77
2018-03-06T19:05:54.264Z,73.30
2018-03-06T19:07:56.043Z,73.77
2018-03-06T19:09:59.037Z,73.68
2018-03-06T19:12:02.187Z,73.96
2018-03-06T19:14:05.195Z,73.87
2018-03-06T19:16:10.526Z,73.96
2018-03-06T19:18:12.999Z,74.06
2018-03-06T19:20:15.222Z,74.06
2018-03-06T19:22:20.262Z,73.62
2018-03-06T19:24:23.820Z,73.14
2018-03-06T19:26:26.589Z,72.67
2018-03-06T19:28:29.229Z,73.14
2018-03-06T19:30:31.753Z,72.28
2018-03-06T19:32:35.946Z,72.28
2018-03-06T19:34:40.687Z,72.38
2018-03-06T19:36:42.410Z,72.09
2018-03-06T19:38:45.635Z,72.28
2018-03-06T19:40:49.824Z,72.19
2018-03-06T19:42:52.695Z,71.72
2018-03-06T19:44:56.686Z,71.81
2018-03-06T19:46:57.924Z,71.91
2018-03-06T19:49:02.897Z,71.62
2018-03-06T19:51:07.087Z,71.91
2018-03-06T19:53:10.694Z,71.91
2018-03-06T19:55:13.395Z,71.91
2018-03-06T19:57:18.829Z,72.09
2018-03-06T19:59:23.689Z,71.91
2018-03-06T20:01:26.551Z,72.67
2018-03-06T20:03:31.973Z,72.28
2018-03-06T20:05:39.191Z,72.57
2018-03-06T20:07:44.330Z,72.38
2018-03-06T20:09:48.692Z,72.67
2018-03-06T20:11:53.449Z,72.86
2018-03-06T20:13:56.287Z,72.86
2018-03-06T20:16:01.226Z,72.67
2018-03-06T20:18:05.328Z,72.92
2018-03-06T20:20:08.351Z,72.82
2018-03-06T20:22:11.580Z,72.63
2018-03-06T20:24:18.693Z,73.01
2018-03-06T20:26:20.846Z,73.58
2018-03-06T20:28:25.900Z,73.68
2018-03-06T20:30:30.875Z,73.77
2018-03-06T20:32:36.053Z,74.06
2018-03-06T20:34:41.192Z,73.96
2018-03-06T20:36:42.597Z,74.06
2018-03-06T20:38:45.019Z,73.58
2018-03-06T20:40:49.598Z,73.58
2018-03-06T20:42:52.009Z,73.58
2018-03-06T20:44:55.768Z,73.68
2018-03-06T20:46:59.890Z,73.58
2018-03-06T20:49:03.695Z,73.87
2018-03-06T20:51:07.278Z,73.68
2018-03-06T20:53:11.886Z,73.49
2018-03-06T20:55:16.086Z,73.77
2018-03-06T20:57:19.129Z,73.87
2018-03-06T20:59:21.713Z,73.58
2018-03-06T21:01:27.698Z,74.06
2018-03-06T21:03:30.909Z,75.26
2018-03-06T21:05:36.197Z,76.84
2018-03-06T21:07:37.829Z,77.13
2018-03-06T21:09:39.643Z,77.17
2018-03-06T21:11:42.560Z,76.31
2018-03-06T21:13:44.347Z,76.31
2018-03-06T21:15:46.719Z,75.84
2018-03-06T21:17:48.419Z,75.74
2018-03-06T21:19:50.159Z,75.93
2018-03-06T21:21:51.847Z,75.93
2018-03-06T21:23:53.491Z,75.74
2018-03-06T21:25:55.220Z,75.64
2018-03-06T21:27:56.970Z,75.84
2018-03-06T21:29:58.664Z,75.74
2018-03-06T21:32:00.394Z,75.45
2018-03-06T21:34:02.181Z,75.55
2018-03-06T21:36:03.935Z,75.45
2018-03-06T21:38:05.641Z,75.45
2018-03-06T21:40:07.416Z,75.26
2018-03-06T21:42:09.493Z,74.98
2018-03-06T21:44:11.528Z,75.36
2018-03-06T21:46:13.576Z,75.74
2018-03-06T21:48:15.273Z,75.64
2018-03-06T21:50:20.385Z,75.64
2018-03-06T21:52:22.432Z,75.55
2018-03-06T21:54:24.141Z,75.16
2018-03-06T21:56:27.615Z,75.93
2018-03-06T21:58:29.543Z,75.74
2018-03-06T22:00:31.178Z,76.08
2018-03-06T22:02:32.972Z,76.40
2018-03-06T22:04:34.659Z,76.50
2018-03-06T22:06:36.345Z,76.27
2018-03-06T22:08:38.549Z,77.03
2018-03-06T22:10:40.570Z,77.98
2018-03-06T22:12:42.352Z,78.61
2018-03-06T22:14:44.039Z,79.57
2018-03-06T22:16:45.772Z,79.47
2018-03-06T22:18:47.506Z,79.03
2018-03-06T22:20:49.131Z,78.08
2018-03-06T22:22:50.866Z,79.09
2018-03-06T22:24:52.565Z,78.90
2018-03-06T22:26:54.266Z,79.09
2018-03-06T22:28:55.971Z,78.99
2018-03-06T22:30:58.066Z,78.33
2018-03-06T22:33:00.000Z,78.08
2018-03-06T22:35:01.745Z,78.27
2018-03-06T22:37:03.448Z,78.37
2018-03-06T22:39:05.131Z,77.76
2018-03-06T22:41:06.788Z,78.33
2018-03-06T22:43:08.478Z,79.19
2018-03-06T22:45:10.285Z,79.85
2018-03-06T22:47:11.987Z,80.23
2018-03-06T22:49:13.784Z,80.80
2018-03-06T22:51:15.466Z,81.37
2018-03-06T22:53:17.246Z,80.71
2018-03-06T22:55:19.240Z,80.13
2018-03-06T22:57:21.012Z,80.04
2018-03-06T22:59:22.727Z,80.90
2018-03-06T23:01:24.803Z,81.28
2018-03-06T23:03:26.597Z,81.76
2018-03-06T23:05:28.282Z,82.70
2018-03-06T23:07:30.189Z,82.23
2018-03-06T23:09:32.161Z,81.09
2018-03-06T23:11:34.170Z,80.42
2018-03-06T23:13:35.906Z,79.75
2018-03-06T23:15:37.709Z,79.75
2018-03-06T23:17:39.422Z,80.13
2018-03-06T23:19:41.049Z,80.80
2018-03-06T23:21:42.769Z,81.28
2018-03-06T23:23:44.653Z,81.37
2018-03-06T23:25:46.291Z,82.42
2018-03-06T23:27:48.055Z,82.70
2018-03-06T23:29:49.684Z,82.61
2018-03-06T23:31:51.502Z,81.95
2018-03-06T23:33:53.441Z,81.28
2018-03-06T23:35:55.074Z,81.28
2018-03-06T23:37:56.809Z,80.90
2018-03-06T23:39:58.580Z,80.80
2018-03-06T23:42:00.387Z,80.42
2018-03-06T23:44:02.131Z,80.90
2018-03-06T23:46:04.157Z,81.85
2018-03-06T23:48:06.186Z,82.51
2018-03-06T23:50:08.172Z,82.67
2018-03-06T23:52:09.878Z,83.47
2018-03-06T23:54:11.588Z,82.57
2018-03-06T23:56:13.237Z,82.61
2018-03-06T23:58:15.064Z,81.76
